Terminal Aerodrome Forecast
Issued by NWS Medford, OR

Home | Current Version | Previous Version | Text Only | Print | Product List | Glossary On
Versions: 1 2 3 4 5 6 7 8 9 10 11 12
803
FTUS46 KMFR 240525
TAFMFR
TAF
KMFR 240525Z 2406/2506 36003KT P6SM VCSH BKN050
     FM240800 VRB02KT P6SM BKN035
     FM241200 VRB02KT P6SM SCT025 BKN035
     FM242000 31006KT P6SM VCSH BKN050
     FM250000 32010KT P6SM VCSH BKN050
     FM250300 33006KT P6SM BKN040=

USA.gov is the U.S. government's official web portal to all federal, state and local government web resources and services.